Time;durP1;ratioP1;P1;durP2;ratioP2;P2;SDS_P1;SDS_P2;PMS_P1;PMS_P2;Temp;Humidity;BMP_temperature;BMP_pressure;BME280_temperature;BME280_humidity;BME280_pressure;Samples;Min_cycle;Max_cycle;Signal;HPM_P1;HPM_P2
2022/02/05 10:12:13;;;;;;;11.30;10.50;;;12.90;88.70;;;;;;5087259;28;20546;-73
2022/02/05 10:14:40;;;;;;;11.10;10.40;;;12.90;86.30;;;;;;5086989;28;20944;-73
2022/02/05 10:17:07;;;;;;;10.93;10.43;;;12.30;87.40;;;;;;5087067;28;20543;-73
2022/02/05 10:19:47;;;;;;;11.23;10.43;;;11.70;88.50;;;;;;5086772;28;20461;-73
2022/02/05 10:22:14;;;;;;;10.00;9.60;;;11.30;90.20;;;;;;5087040;28;20453;-73
2022/02/05 10:24:49;;;;;;;11.10;10.40;;;11.00;91.50;;;;;;5086834;28;20450;-74
2022/02/05 10:27:28;;;;;;;10.80;10.10;;;10.80;91.40;;;;;;5087061;28;20540;-73
2022/02/05 10:30:07;;;;;;;10.90;10.30;;;10.30;92.10;;;;;;5086795;28;20530;-74
2022/02/05 10:32:39;;;;;;;11.47;10.93;;;10.50;92.90;;;;;;5086492;28;20948;-75
2022/02/05 10:35:19;;;;;;;11.47;10.47;;;11.50;91.20;;;;;;5086622;28;20461;-74
2022/02/05 10:37:51;;;;;;;10.03;9.53;;;11.80;90.20;;;;;;5086649;28;20541;-75
2022/02/05 10:40:22;;;;;;;10.10;9.43;;;11.80;89.90;;;;;;5086470;28;20443;-74
2022/02/05 10:43:03;;;;;;;10.13;9.40;;;12.10;90.80;;;;;;5086439;28;20450;-75
2022/02/05 10:45:42;;;;;;;12.47;10.60;;;12.70;87.90;;;;;;5086608;28;20945;-74
2022/02/05 10:48:10;;;;;;;14.27;11.70;;;13.20;85.50;;;;;;5086525;28;20446;-76
2022/02/05 10:50:38;;;;;;;9.80;9.40;;;13.60;83.20;;;;;;5086162;28;20486;-76
2022/02/05 10:53:07;;;;;;;10.70;10.10;;;13.40;84.20;;;;;;5086384;28;20574;-75
2022/02/05 10:55:47;;;;;;;10.40;9.90;;;13.60;83.70;;;;;;5086125;28;20882;-74
2022/02/05 10:58:24;;;;;;;10.73;10.20;;;13.00;83.40;;;;;;5086495;28;20456;-74
2022/02/05 11:06:26;;;;;;;11.17;10.47;;;12.10;86.90;;;;;;5086453;28;20422;-73
2022/02/05 11:08:54;;;;;;;11.90;11.10;;;13.80;84.60;;;;;;5085904;28;20447;-74
2022/02/05 11:14:27;;;;;;;11.97;11.17;;;15.50;80.00;;;;;;5072365;28;20426;-74
2022/02/05 11:19:40;;;;;;;10.10;9.60;;;16.90;70.90;;;;;;5072346;28;20797;-75
2022/02/05 11:22:07;;;;;;;11.43;10.93;;;17.80;70.30;;;;;;5072392;28;20455;-75
2022/02/05 11:24:34;;;;;;;12.00;11.30;;;18.70;66.50;;;;;;5072207;28;20439;-74
2022/02/05 11:27:01;;;;;;;13.13;12.33;;;18.50;65.50;;;;;;5072218;28;20451;-74
2022/02/05 11:29:32;;;;;;;10.87;10.40;;;17.90;60.70;;;;;;5072412;28;20816;-73
2022/02/05 11:32:22;;;;;;;10.80;10.40;;;15.80;62.80;;;;;;5072307;28;20486;-74
2022/02/05 11:35:06;;;;;;;10.60;9.90;;;14.90;65.60;;;;;;5071928;28;20447;-74
2022/02/05 11:37:51;;;;;;;10.53;9.80;;;14.60;66.60;;;;;;5072016;28;20529;-75
2022/02/05 11:40:45;;;;;;;10.07;9.67;;;13.60;66.80;;;;;;5072187;28;20859;-76
2022/02/05 11:43:20;;;;;;;11.40;10.80;;;14.40;68.00;;;;;;5072246;28;20454;-75
2022/02/05 11:46:09;;;;;;;11.53;10.70;;;15.00;65.80;;;;;;5071877;28;20442;-75
2022/02/05 11:48:55;;;;;;;11.33;10.50;;;14.90;64.60;;;;;;5071711;28;20458;-75
2022/02/05 11:51:23;;;;;;;11.00;10.40;;;15.60;66.00;;;;;;5071648;28;20482;-75
2022/02/05 11:54:16;;;;;;;10.83;10.23;;;15.50;63.30;;;;;;5071776;28;20475;-75
2022/02/05 11:56:50;;;;;;;11.40;11.00;;;16.40;62.00;;;;;;5072018;28;20829;-75
2022/02/05 11:59:17;;;;;;;11.43;10.63;;;17.10;61.10;;;;;;5071592;28;20467;-76
2022/02/05 12:01:46;;;;;;;11.10;10.60;;;17.10;58.60;;;;;;5071943;28;20569;-75
2022/02/05 12:04:16;;;;;;;10.67;10.17;;;17.70;57.70;;;;;;5071660;28;20455;-76
2022/02/05 12:06:52;;;;;;;11.20;10.43;;;18.40;56.50;;;;;;5071737;28;20504;-75
2022/02/05 12:09:36;;;;;;;11.00;10.50;;;18.70;54.50;;;;;;5071420;28;20554;-75
2022/02/05 12:12:47;;;;;;;11.73;10.77;;;19.00;54.70;;;;;;5070918;28;20498;-75
2022/02/05 12:15:23;;;;;;;10.97;10.57;;;19.40;53.20;;;;;;5071580;28;20451;-75
2022/02/05 12:18:13;;;;;;;11.97;11.37;;;19.90;52.80;;;;;;5071139;28;20929;-75
2022/02/05 12:21:06;;;;;;;12.50;11.63;;;20.60;51.80;;;;;;5071223;28;20447;-75
2022/02/05 12:26:46;;;;;;;11.83;11.17;;;21.00;49.30;;;;;;5057087;28;20438;-73
2022/02/05 12:29:29;;;;;;;11.20;10.70;;;20.80;47.40;;;;;;5071345;28;20797;-74
2022/02/05 12:31:56;;;;;;;11.67;11.00;;;19.30;49.90;;;;;;5070820;28;21009;-76
2022/02/05 12:34:25;;;;;;;11.87;11.37;;;19.30;50.00;;;;;;5070755;28;20455;-75
2022/02/05 12:36:54;;;;;;;11.70;11.10;;;17.90;51.30;;;;;;5070929;28;20516;-76
2022/02/05 12:39:26;;;;;;;12.47;11.63;;;17.60;52.70;;;;;;5070851;28;20970;-75
2022/02/05 12:41:55;;;;;;;10.80;10.30;;;17.80;51.00;;;;;;5070573;28;20543;-75
2022/02/05 12:44:24;;;;;;;10.97;10.47;;;18.00;50.70;;;;;;5070650;28;20470;-74
2022/02/05 12:46:55;;;;;;;11.37;10.87;;;16.70;51.00;;;;;;5070570;28;20993;-74
2022/02/05 12:49:28;;;;;;;12.17;11.33;;;14.80;52.50;;;;;;5070347;28;20459;-74
2022/02/05 12:51:57;;;;;;;10.90;10.40;;;14.10;56.20;;;;;;5070393;28;21020;-74
2022/02/05 12:54:27;;;;;;;11.17;10.67;;;13.70;56.60;;;;;;5070475;28;20491;-74
2022/02/05 12:56:55;;;;;;;10.73;10.13;;;13.70;56.30;;;;;;5070442;28;20451;-73
2022/02/05 12:59:29;;;;;;;10.53;10.13;;;13.50;57.70;;;;;;5070232;28;20548;-75
2022/02/05 13:01:58;;;;;;;11.13;10.63;;;14.00;57.80;;;;;;5070280;28;20836;-73
2022/02/05 13:04:28;;;;;;;10.57;10.07;;;13.80;57.40;;;;;;5070214;28;20942;-73
2022/02/05 13:07:03;;;;;;;10.53;9.70;;;13.20;58.60;;;;;;5070121;28;20832;-75
2022/02/05 13:09:32;;;;;;;10.20;9.90;;;12.30;58.90;;;;;;5070632;28;20455;-74
2022/02/05 13:12:03;;;;;;;10.00;9.50;;;11.40;61.30;;;;;;5070297;28;21071;-75
2022/02/05 13:14:37;;;;;;;9.57;9.20;;;11.00;63.70;;;;;;5070348;28;20512;-75
2022/02/05 13:17:07;;;;;;;10.27;9.60;;;10.60;64.70;;;;;;5069921;28;20452;-76
2022/02/05 13:19:54;;;;;;;8.43;8.10;;;10.90;65.70;;;;;;5070000;28;20459;-76
2022/02/05 13:28:04;;;;;;;9.40;9.00;;;10.60;67.20;;;;;;5056517;28;20431;-74
2022/02/05 13:36:09;;;;;;;9.33;8.93;;;10.10;69.60;;;;;;5069628;28;20419;-74
2022/02/05 13:38:48;;;;;;;9.87;9.10;;;10.10;70.80;;;;;;5069737;28;20461;-74
2022/02/05 13:41:15;;;;;;;8.90;8.50;;;10.00;69.00;;;;;;5070031;28;20467;-74
2022/02/05 13:43:55;;;;;;;9.37;8.93;;;9.90;72.00;;;;;;5069816;28;20451;-74
2022/02/05 13:46:22;;;;;;;9.83;9.37;;;9.80;72.60;;;;;;5069738;28;20442;-74
2022/02/05 13:48:49;;;;;;;9.40;9.00;;;9.80;73.10;;;;;;5069566;28;20451;-75
2022/02/05 13:51:17;;;;;;;9.30;8.80;;;9.70;72.80;;;;;;5069649;28;20487;-75
2022/02/05 13:53:52;;;;;;;8.80;8.50;;;9.60;74.00;;;;;;5069772;28;20447;-75
2022/02/05 13:56:19;;;;;;;9.30;8.90;;;9.50;74.70;;;;;;5069458;28;20458;-74
2022/02/05 13:58:45;;;;;;;9.10;8.70;;;9.50;75.10;;;;;;5069607;28;20938;-74
2022/02/05 14:01:28;;;;;;;9.23;8.83;;;9.40;76.40;;;;;;5069718;28;20439;-74
2022/02/05 14:03:55;;;;;;;9.30;8.90;;;9.40;75.20;;;;;;5069379;28;20541;-74
2022/02/05 14:06:23;;;;;;;9.03;8.53;;;9.30;75.70;;;;;;5069541;28;20455;-74
2022/02/05 14:08:51;;;;;;;8.37;8.07;;;9.20;76.30;;;;;;5069364;28;20458;-74
2022/02/05 14:11:27;;;;;;;9.47;9.07;;;9.20;76.50;;;;;;5069117;28;20490;-74
2022/02/05 14:13:57;;;;;;;9.00;8.60;;;9.20;77.10;;;;;;5069429;28;20458;-74
2022/02/05 14:16:29;;;;;;;9.40;8.90;;;9.20;77.80;;;;;;5069340;28;20447;-73
2022/02/05 14:18:59;;;;;;;9.33;8.87;;;9.40;78.80;;;;;;5069582;28;20501;-73
2022/02/05 14:21:35;;;;;;;9.40;8.90;;;9.50;77.80;;;;;;5069266;28;20439;-73
2022/02/05 14:24:05;;;;;;;9.27;8.87;;;9.60;77.70;;;;;;5069182;28;20451;-74
2022/02/05 14:26:39;;;;;;;9.67;8.80;;;9.60;77.70;;;;;;5069207;28;20447;-74
2022/02/05 14:29:07;;;;;;;9.07;8.67;;;9.70;78.10;;;;;;5069107;28;20451;-74
2022/02/05 14:31:44;;;;;;;9.80;9.30;;;9.80;78.80;;;;;;5068928;28;20910;-72
2022/02/05 14:34:19;;;;;;;9.63;9.03;;;9.80;79.70;;;;;;5069300;28;20893;-74
2022/02/05 14:42:20;;;;;;;9.37;8.63;;;9.80;81.50;;;;;;5069299;28;20776;-74
2022/02/05 14:44:47;;;;;;;9.40;8.90;;;9.90;82.10;;;;;;5069255;28;20443;-74
2022/02/05 14:47:14;;;;;;;9.93;9.40;;;9.80;81.70;;;;;;5070759;28;20451;-74
2022/02/05 14:49:41;;;;;;;9.20;8.80;;;9.80;83.00;;;;;;5073007;28;20444;-75
2022/02/05 14:52:14;;;;;;;7.93;7.50;;;9.80;81.70;;;;;;5072584;28;20483;-74
2022/02/05 14:54:42;;;;;;;9.43;9.00;;;9.70;81.30;;;;;;5072612;28;20947;-74
2022/02/05 14:57:10;;;;;;;9.20;8.70;;;9.80;81.80;;;;;;5072782;28;21047;-73
2022/02/05 14:59:37;;;;;;;8.60;8.13;;;9.80;80.60;;;;;;5072411;28;20990;-73
2022/02/05 15:02:04;;;;;;;8.00;7.70;;;9.70;80.10;;;;;;5072299;28;20986;-74
2022/02/05 15:04:31;;;;;;;9.60;9.20;;;9.60;79.20;;;;;;5072591;28;20458;-74
2022/02/05 15:06:57;;;;;;;9.90;9.20;;;9.30;79.00;;;;;;5072674;28;20451;-74
2022/02/05 15:09:25;;;;;;;8.90;8.50;;;9.20;80.30;;;;;;5072259;28;20458;-74
2022/02/05 15:11:52;;;;;;;9.80;9.30;;;9.10;80.80;;;;;;5071921;28;20498;-75
2022/02/05 15:14:19;;;;;;;9.13;8.83;;;9.00;79.90;;;;;;5072182;28;20874;-74
2022/02/05 15:16:45;;;;;;;9.70;9.10;;;8.90;79.50;;;;;;5072411;28;20457;-73
2022/02/05 15:19:13;;;;;;;9.90;9.20;;;8.90;80.80;;;;;;5072568;28;20445;-76
2022/02/05 15:21:44;;;;;;;9.70;9.10;;;8.80;81.70;;;;;;5072182;28;20462;-73
2022/02/05 15:24:11;;;;;;;9.23;8.73;;;8.70;82.30;;;;;;5072125;28;20466;-74
2022/02/05 15:26:40;;;;;;;9.87;8.97;;;8.70;83.30;;;;;;5072013;28;20466;-75
2022/02/05 15:29:09;;;;;;;9.20;8.50;;;8.60;83.30;;;;;;5072044;28;20459;-75
2022/02/05 15:31:37;;;;;;;9.43;8.93;;;8.50;83.80;;;;;;5071623;28;20737;-75
2022/02/05 15:34:05;;;;;;;10.13;9.33;;;8.40;84.20;;;;;;5071731;28;20461;-76
2022/02/05 15:36:39;;;;;;;9.33;9.00;;;8.40;84.50;;;;;;5071855;28;20482;-75
2022/02/05 15:39:16;;;;;;;8.60;8.30;;;8.30;84.90;;;;;;5072067;28;20490;-75
2022/02/05 15:44:29;;;;;;;10.47;9.93;;;8.20;86.50;;;;;;5071971;28;20937;-76
2022/02/05 15:46:56;;;;;;;8.63;8.23;;;8.10;87.80;;;;;;5071654;28;20446;-74
2022/02/05 15:49:22;;;;;;;7.43;7.10;;;7.90;88.30;;;;;;5071679;28;20460;-75
2022/02/05 15:51:49;;;;;;;8.50;8.07;;;7.80;88.80;;;;;;5071426;28;20984;-75
2022/02/05 15:54:16;;;;;;;9.33;8.87;;;7.80;89.80;;;;;;5071702;28;20454;-75
2022/02/05 15:56:54;;;;;;;9.60;8.80;;;7.70;90.40;;;;;;5071681;28;20457;-75
2022/02/05 15:59:25;;;;;;;9.40;8.63;;;7.70;90.80;;;;;;5071527;28;20450;-75
2022/02/05 16:01:52;;;;;;;8.80;8.40;;;7.50;90.90;;;;;;5071038;28;20466;-75
2022/02/05 16:04:21;;;;;;;8.60;8.10;;;7.40;91.60;;;;;;5071124;28;20477;-75
2022/02/05 16:06:47;;;;;;;9.10;8.50;;;7.30;91.70;;;;;;5071046;28;20457;-75
2022/02/05 16:09:14;;;;;;;9.57;8.90;;;7.20;91.90;;;;;;5071373;28;20453;-75
2022/02/05 16:11:41;;;;;;;9.03;8.37;;;7.20;92.30;;;;;;5070934;28;20498;-74
2022/02/05 16:14:09;;;;;;;10.73;9.97;;;7.20;92.60;;;;;;5071100;28;20481;-75
2022/02/05 16:16:36;;;;;;;9.23;8.83;;;7.20;92.90;;;;;;5070849;28;20450;-75
2022/02/05 16:19:02;;;;;;;9.30;8.80;;;7.20;93.20;;;;;;5070683;28;20458;-74
2022/02/05 16:21:29;;;;;;;8.37;8.00;;;7.10;93.50;;;;;;5071086;28;20443;-74
2022/02/05 16:23:56;;;;;;;8.87;8.30;;;7.10;93.80;;;;;;5070881;28;20512;-74
2022/02/05 16:26:22;;;;;;;9.10;8.60;;;7.00;93.70;;;;;;5070739;28;20460;-74
2022/02/05 16:28:49;;;;;;;9.40;8.70;;;7.00;94.10;;;;;;5070629;28;20455;-74
2022/02/05 16:31:17;;;;;;;9.07;8.67;;;6.90;94.60;;;;;;5070523;28;20447;-75
2022/02/05 16:33:45;;;;;;;8.50;8.20;;;6.80;94.80;;;;;;5070811;28;20500;-74
2022/02/05 16:36:17;;;;;;;9.80;9.20;;;6.90;94.50;;;;;;5070827;28;20459;-75
2022/02/05 16:38:49;;;;;;;9.33;8.73;;;6.90;94.80;;;;;;5070903;28;20985;-74
2022/02/05 16:41:16;;;;;;;9.40;8.90;;;6.80;95.20;;;;;;5070542;28;20483;-74
2022/02/05 16:43:46;;;;;;;8.60;7.97;;;6.80;95.30;;;;;;5070537;28;20477;-74
2022/02/05 16:46:15;;;;;;;8.67;8.07;;;6.80;95.80;;;;;;5070551;28;20454;-74
2022/02/05 16:48:43;;;;;;;8.80;8.50;;;6.70;96.30;;;;;;5070420;28;20499;-76
2022/02/05 16:51:13;;;;;;;8.90;8.30;;;6.70;96.30;;;;;;5070312;28;20573;-75
2022/02/05 16:53:41;;;;;;;8.23;7.73;;;6.60;96.50;;;;;;5070236;28;20483;-75
2022/02/05 16:56:08;;;;;;;8.77;8.27;;;6.60;97.00;;;;;;5069956;28;20515;-73
2022/02/05 16:58:36;;;;;;;9.40;8.80;;;6.50;97.20;;;;;;5069744;28;20866;-74
2022/02/05 17:01:03;;;;;;;9.10;8.47;;;6.50;97.40;;;;;;5069785;28;20884;-74
2022/02/05 17:03:29;;;;;;;8.63;8.23;;;6.50;97.70;;;;;;5070010;28;20494;-74
2022/02/05 17:05:57;;;;;;;9.77;9.03;;;6.50;97.60;;;;;;5070125;28;20457;-74
2022/02/05 17:08:30;;;;;;;10.03;9.63;;;6.50;97.50;;;;;;5069773;28;20519;-74
2022/02/05 17:10:56;;;;;;;9.10;8.50;;;6.50;98.00;;;;;;5069273;28;20472;-74
2022/02/05 17:13:23;;;;;;;8.73;8.23;;;6.50;98.30;;;;;;5069531;28;20494;-74
2022/02/05 17:15:51;;;;;;;8.87;8.30;;;6.40;98.60;;;;;;5069814;28;20464;-75
2022/02/05 17:18:21;;;;;;;9.13;8.53;;;6.40;98.90;;;;;;5069591;28;20445;-75
2022/02/05 17:20:52;;;;;;;8.07;7.43;;;6.50;98.90;;;;;;5069559;28;20459;-74
2022/02/05 17:23:23;;;;;;;9.30;8.70;;;6.50;98.80;;;;;;5069466;28;20447;-74
2022/02/05 17:25:50;;;;;;;10.13;8.67;;;6.50;98.60;;;;;;5069810;28;20901;-74
2022/02/05 17:28:17;;;;;;;9.27;8.47;;;6.50;98.70;;;;;;5069959;28;20497;-75
2022/02/05 17:30:44;;;;;;;9.30;8.70;;;6.40;99.00;;;;;;5070086;28;20443;-74
2022/02/05 17:33:12;;;;;;;9.40;8.80;;;6.40;99.50;;;;;;5069785;28;21016;-74
2022/02/05 17:35:42;;;;;;;9.93;9.23;;;6.20;99.80;;;;;;5069778;28;20455;-74
2022/02/05 17:38:10;;;;;;;9.00;8.50;;;6.20;99.90;;;;;;5069740;28;20971;-73
2022/02/05 17:40:38;;;;;;;9.10;8.60;;;6.10;99.90;;;;;;5069768;28;20714;-73
2022/02/05 17:43:04;;;;;;;9.07;8.50;;;6.00;99.90;;;;;;5069620;28;20469;-73
2022/02/05 17:45:31;;;;;;;9.07;8.67;;;5.80;99.90;;;;;;5069912;28;20447;-73
2022/02/05 17:47:58;;;;;;;9.70;9.10;;;5.80;99.90;;;;;;5070096;28;20811;-74
2022/02/05 17:50:25;;;;;;;9.90;9.20;;;5.80;99.90;;;;;;5069725;28;20452;-73
2022/02/05 17:52:51;;;;;;;9.67;8.97;;;5.80;99.90;;;;;;5069535;28;20502;-74
2022/02/05 17:55:18;;;;;;;9.80;9.20;;;5.80;99.90;;;;;;5069617;28;20447;-73
2022/02/05 17:57:52;;;;;;;9.80;9.10;;;5.90;99.90;;;;;;5069853;28;20451;-73
